createdAt,value
2017-05-13T00:00:28.686Z,23.19
2017-05-13T00:01:28.736Z,23.15
2017-05-13T00:02:28.394Z,23.17
2017-05-13T00:03:28.403Z,23.13
2017-05-13T00:04:28.719Z,23.12
2017-05-13T00:05:28.413Z,23.16
2017-05-13T00:06:28.419Z,23.13
2017-05-13T00:07:28.739Z,23.1
2017-05-13T00:08:28.743Z,23.15
2017-05-13T00:09:28.443Z,23.23
2017-05-13T00:10:28.762Z,23.09
2017-05-13T00:11:28.455Z,23.17
2017-05-13T00:12:28.462Z,23.16
2017-05-13T00:13:28.781Z,23.17
2017-05-13T00:14:28.790Z,23.07
2017-05-13T00:15:28.791Z,23.1
2017-05-13T00:16:28.800Z,23.12
2017-05-13T00:17:28.497Z,23.13
2017-05-13T00:18:28.819Z,23.12
2017-05-13T00:19:28.872Z,23.15
2017-05-13T00:20:28.523Z,23.16
2017-05-13T00:21:28.836Z,23.16
2017-05-13T00:22:28.897Z,23.05
2017-05-13T00:23:28.903Z,23.04
2017-05-13T00:24:28.863Z,23
2017-05-13T00:25:28.915Z,23.1
2017-05-13T00:26:28.563Z,23.07
2017-05-13T00:27:28.573Z,23.02
2017-05-13T00:28:28.939Z,23.13
2017-05-13T00:29:28.898Z,23.13
2017-05-13T00:30:28.901Z,23.13
2017-05-13T00:31:28.909Z,23.04
2017-05-13T00:32:28.615Z,23.05
2017-05-13T00:33:28.614Z,23.09
2017-05-13T00:34:28.308Z,22.98
2017-05-13T00:35:28.631Z,23
2017-05-13T00:36:28.943Z,23.04
2017-05-13T00:37:28.953Z,23.02
2017-05-13T00:38:28.957Z,23.04
2017-05-13T00:39:28.970Z,23
2017-05-13T00:40:29.024Z,23
2017-05-13T00:41:28.982Z,23.01
2017-05-13T00:42:28.989Z,22.98
2017-05-13T00:43:29.048Z,22.98
2017-05-13T00:44:29.008Z,23
2017-05-13T00:45:29.059Z,23.04
2017-05-13T00:46:29.017Z,23.04
2017-05-13T00:47:29.020Z,22.98
2017-05-13T00:48:29.033Z,23
2017-05-13T00:49:28.773Z,23.01
2017-05-13T00:50:29.044Z,23
2017-05-13T00:51:28.743Z,23
2017-05-13T00:52:29.118Z,23.04
2017-05-13T00:53:29.115Z,23.01
2017-05-13T00:54:29.119Z,22.98
2017-05-13T00:55:29.132Z,22.98
2017-05-13T00:56:29.139Z,22.95
2017-05-13T00:57:29.104Z,23.02
2017-05-13T00:58:29.101Z,22.98
2017-05-13T00:59:29.106Z,22.95
2017-05-13T01:00:29.112Z,22.83
2017-05-13T01:01:29.125Z,22.95
2017-05-13T01:02:29.130Z,22.98
2017-05-13T01:03:29.138Z,22.95
2017-05-13T01:04:29.145Z,22.91
2017-05-13T01:05:29.152Z,22.98
2017-05-13T01:06:28.846Z,22.92
2017-05-13T01:07:28.905Z,23
2017-05-13T01:08:29.273Z,22.97
2017-05-13T01:09:28.872Z,22.97
2017-05-13T01:10:29.188Z,22.97
2017-05-13T01:11:29.194Z,22.97
2017-05-13T01:12:29.199Z,22.85
2017-05-13T01:13:29.208Z,22.85
2017-05-13T01:14:28.905Z,22.91
2017-05-13T01:15:28.966Z,22.92
2017-05-13T01:16:28.919Z,22.95
2017-05-13T01:17:29.239Z,22.83
2017-05-13T01:18:28.979Z,22.95
2017-05-13T01:19:28.937Z,22.92
2017-05-13T01:20:29.263Z,22.95
2017-05-13T01:21:29.264Z,22.92
2017-05-13T01:22:29.271Z,22.86
2017-05-13T01:23:29.280Z,22.9
2017-05-13T01:24:29.343Z,22.85
2017-05-13T01:25:29.296Z,22.82
2017-05-13T01:26:29.348Z,22.86
2017-05-13T01:27:29.307Z,22.9
2017-05-13T01:28:29.314Z,22.92
2017-05-13T01:29:29.322Z,22.85
2017-05-13T01:30:29.380Z,22.86
2017-05-13T01:31:29.685Z,22.91
2017-05-13T01:32:29.339Z,22.97
2017-05-13T01:33:29.347Z,22.85
2017-05-13T01:34:29.359Z,22.94
2017-05-13T01:35:29.363Z,22.91
2017-05-13T01:36:29.367Z,22.94
2017-05-13T01:37:29.373Z,22.76
2017-05-13T01:38:28.812Z,22.91
2017-05-13T01:39:29.444Z,22.92
2017-05-13T01:40:29.394Z,22.94
2017-05-13T01:41:29.404Z,22.92
2017-05-13T01:42:29.416Z,22.97
2017-05-13T01:43:29.466Z,22.91
2017-05-13T01:44:29.423Z,22.91
2017-05-13T01:45:29.439Z,22.83
2017-05-13T01:46:29.130Z,22.9
2017-05-13T01:47:29.139Z,22.86
2017-05-13T01:48:29.460Z,22.94
2017-05-13T01:49:29.461Z,22.91
2017-05-13T01:50:29.468Z,22.88
2017-05-13T01:51:29.473Z,22.86
2017-05-13T01:52:29.528Z,22.83
2017-05-13T01:53:29.490Z,22.9
2017-05-13T01:54:29.498Z,22.91
2017-05-13T01:55:29.192Z,22.88
2017-05-13T01:56:29.249Z,22.85
2017-05-13T01:57:29.524Z,22.86
2017-05-13T01:58:29.527Z,22.86
2017-05-13T01:59:29.578Z,22.83
2017-05-13T02:00:29.278Z,22.86
2017-05-13T02:01:29.596Z,22.83
2017-05-13T02:02:29.255Z,22.8
2017-05-13T02:03:29.556Z,22.82
2017-05-13T02:04:29.563Z,22.77
2017-05-13T02:05:29.573Z,22.8
2017-05-13T02:06:29.583Z,22.82
2017-05-13T02:07:29.272Z,22.79
2017-05-13T02:08:29.591Z,22.82
2017-05-13T02:09:29.285Z,22.8
2017-05-13T02:10:29.611Z,22.79
2017-05-13T02:11:29.304Z,22.79
2017-05-13T02:12:29.307Z,22.8
2017-05-13T02:13:29.629Z,22.8
2017-05-13T02:14:29.641Z,22.83
2017-05-13T02:15:29.692Z,22.72
2017-05-13T02:16:29.337Z,22.76
2017-05-13T02:17:29.345Z,22.83
2017-05-13T02:18:29.668Z,22.77
2017-05-13T02:19:29.671Z,22.8
2017-05-13T02:20:29.419Z,22.8
2017-05-13T02:21:29.688Z,22.82
2017-05-13T02:22:29.694Z,22.8
2017-05-13T02:23:29.697Z,22.83
2017-05-13T02:24:29.083Z,22.85
2017-05-13T02:25:29.403Z,22.79
2017-05-13T02:26:29.409Z,22.85
2017-05-13T02:27:29.413Z,22.79
2017-05-13T02:28:29.736Z,22.79
2017-05-13T02:29:29.748Z,22.77
2017-05-13T02:30:29.748Z,22.79
2017-05-13T02:31:29.130Z,22.77
2017-05-13T02:32:29.505Z,22.85
2017-05-13T02:33:29.772Z,22.8
2017-05-13T02:34:29.470Z,22.77
2017-05-13T02:35:29.786Z,22.79
2017-05-13T02:36:29.531Z,22.8
2017-05-13T02:37:29.794Z,22.77
2017-05-13T02:38:29.804Z,22.75
2017-05-13T02:39:29.822Z,22.82
2017-05-13T02:40:29.558Z,22.73
2017-05-13T02:41:29.513Z,22.82
2017-05-13T02:42:29.518Z,22.77
2017-05-13T02:43:29.836Z,22.75
2017-05-13T02:44:29.534Z,22.77
2017-05-13T02:45:29.540Z,22.72
2017-05-13T02:46:29.864Z,22.77
2017-05-13T02:47:29.866Z,22.7
2017-05-13T02:48:29.882Z,22.75
2017-05-13T02:49:29.882Z,22.73
2017-05-13T02:50:29.945Z,22.76
2017-05-13T02:51:29.893Z,22.77
2017-05-13T02:52:29.643Z,22.76
2017-05-13T02:53:29.906Z,22.77
2017-05-13T02:54:29.602Z,22.75
2017-05-13T02:55:30.010Z,22.7
2017-05-13T02:56:29.620Z,22.79
2017-05-13T02:57:29.943Z,22.76
2017-05-13T02:58:29.944Z,22.64
2017-05-13T02:59:29.996Z,22.7
2017-05-13T03:00:29.956Z,22.8
2017-05-13T03:01:29.964Z,22.7
2017-05-13T03:02:29.971Z,22.76
2017-05-13T03:03:29.990Z,22.68
2017-05-13T03:04:30.036Z,22.68
2017-05-13T03:05:29.991Z,22.72
2017-05-13T03:06:30.003Z,22.65
2017-05-13T03:07:30.054Z,22.73
2017-05-13T03:08:30.065Z,22.67
2017-05-13T03:09:30.022Z,22.68
2017-05-13T03:10:30.030Z,22.68
2017-05-13T03:11:29.718Z,22.73
2017-05-13T03:12:29.782Z,22.72
2017-05-13T03:13:29.784Z,22.65
2017-05-13T03:14:30.106Z,22.64
2017-05-13T03:15:30.063Z,22.76
2017-05-13T03:16:30.072Z,22.7
2017-05-13T03:17:30.078Z,22.68
2017-05-13T03:18:29.771Z,22.64
2017-05-13T03:19:30.092Z,22.68
2017-05-13T03:20:29.789Z,22.73
2017-05-13T03:21:30.155Z,22.72
2017-05-13T03:22:30.112Z,22.67
2017-05-13T03:23:30.179Z,22.72
2017-05-13T03:24:29.815Z,22.75
2017-05-13T03:25:30.136Z,22.76
2017-05-13T03:26:29.827Z,22.73
2017-05-13T03:27:29.836Z,22.64
2017-05-13T03:28:30.159Z,22.72
2017-05-13T03:29:30.163Z,22.68
2017-05-13T03:30:30.165Z,22.67
2017-05-13T03:31:30.177Z,22.72
2017-05-13T03:32:29.870Z,22.77
2017-05-13T03:33:30.188Z,22.65
2017-05-13T03:34:30.193Z,22.68
2017-05-13T03:35:29.941Z,22.7
2017-05-13T03:36:30.209Z,22.7
2017-05-13T03:37:30.216Z,22.7
2017-05-13T03:38:29.913Z,22.68
2017-05-13T03:39:30.226Z,22.64
2017-05-13T03:40:30.285Z,22.7
2017-05-13T03:41:30.292Z,22.72
2017-05-13T03:42:30.309Z,22.64
2017-05-13T03:43:30.262Z,22.65
2017-05-13T03:44:30.264Z,22.67
2017-05-13T03:45:30.270Z,22.72
2017-05-13T03:46:30.018Z,22.67
2017-05-13T03:47:30.285Z,22.68
2017-05-13T03:48:30.297Z,22.62
2017-05-13T03:49:30.037Z,22.68
2017-05-13T03:50:30.000Z,22.65
2017-05-13T03:51:30.013Z,22.73
2017-05-13T03:52:30.374Z,22.68
2017-05-13T03:53:30.018Z,22.73
2017-05-13T03:54:30.334Z,22.65
2017-05-13T03:55:30.343Z,22.68
2017-05-13T03:56:30.397Z,22.64
2017-05-13T03:57:30.359Z,22.68
2017-05-13T03:58:30.052Z,22.64
2017-05-13T03:59:30.061Z,22.65
2017-05-13T04:00:30.391Z,22.72
2017-05-13T04:01:30.386Z,22.65
2017-05-13T04:02:30.390Z,22.73
2017-05-13T04:03:30.086Z,22.77
2017-05-13T04:04:30.406Z,22.64
2017-05-13T04:05:30.412Z,22.64
2017-05-13T04:06:30.416Z,22.72
2017-05-13T04:07:30.113Z,22.68
2017-05-13T04:08:30.440Z,22.7
2017-05-13T04:09:30.495Z,22.72
2017-05-13T04:10:30.444Z,22.7
2017-05-13T04:11:30.452Z,22.73
2017-05-13T04:12:30.461Z,22.73
2017-05-13T04:13:30.576Z,22.76
2017-05-13T04:14:29.857Z,22.7
2017-05-13T04:15:30.171Z,22.73
2017-05-13T04:16:30.173Z,22.75
2017-05-13T04:17:30.506Z,22.73
2017-05-13T04:18:30.550Z,22.82
2017-05-13T04:19:30.515Z,22.73
2017-05-13T04:20:30.204Z,22.7
2017-05-13T04:21:30.210Z,22.77
2017-05-13T04:22:30.528Z,22.7
2017-05-13T04:23:30.274Z,22.67
2017-05-13T04:24:30.231Z,22.7
2017-05-13T04:25:30.238Z,22.73
2017-05-13T04:26:30.556Z,22.77
2017-05-13T04:27:30.567Z,22.75
2017-05-13T04:28:30.623Z,22.79
2017-05-13T04:29:30.321Z,22.7
2017-05-13T04:30:30.585Z,22.67
2017-05-13T04:31:30.590Z,22.7
2017-05-13T04:32:30.342Z,22.76
2017-05-13T04:33:30.612Z,22.7
2017-05-13T04:34:30.611Z,22.77
2017-05-13T04:35:30.618Z,22.75
2017-05-13T04:36:30.317Z,22.82
2017-05-13T04:37:30.632Z,22.75
2017-05-13T04:38:30.384Z,22.77
2017-05-13T04:39:30.334Z,22.77
2017-05-13T04:40:30.341Z,22.77
2017-05-13T04:41:30.350Z,22.88
2017-05-13T04:42:30.669Z,22.86
2017-05-13T04:43:30.680Z,22.88
2017-05-13T04:44:30.063Z,22.88
2017-05-13T04:45:30.691Z,22.91
2017-05-13T04:46:30.693Z,22.88
2017-05-13T04:47:30.752Z,22.82
2017-05-13T04:48:30.711Z,22.9
2017-05-13T04:49:30.464Z,22.85
2017-05-13T04:50:30.726Z,22.86
2017-05-13T04:51:30.728Z,22.95
2017-05-13T04:52:30.740Z,23.04
2017-05-13T04:53:30.170Z,23.16
2017-05-13T04:54:30.749Z,23.13
2017-05-13T04:55:30.758Z,23.05
2017-05-13T04:56:30.504Z,23.16
2017-05-13T04:57:30.776Z,23.16
2017-05-13T04:58:30.785Z,23.31
2017-05-13T04:59:30.792Z,23.42
2017-05-13T05:00:30.803Z,23.39
2017-05-13T05:01:30.803Z,23.27
2017-05-13T05:02:30.501Z,23.32
2017-05-13T05:03:30.871Z,23.25
2017-05-13T05:04:30.511Z,23.2
2017-05-13T05:05:30.835Z,23.22
2017-05-13T05:06:30.529Z,23.1
2017-05-13T05:07:30.849Z,23.16
2017-05-13T05:08:30.861Z,23.09
2017-05-13T05:09:30.866Z,23.16
2017-05-13T05:10:30.866Z,23.05
2017-05-13T05:11:30.910Z,23.01
2017-05-13T05:12:30.882Z,23
2017-05-13T05:13:30.633Z,23.04
2017-05-13T05:14:30.587Z,23.05
2017-05-13T05:15:30.902Z,23.01
2017-05-13T05:16:30.913Z,23.02
2017-05-13T05:17:30.349Z,23.02
2017-05-13T05:18:30.978Z,23
2017-05-13T05:19:30.933Z,23.02
2017-05-13T05:20:30.631Z,22.94
2017-05-13T05:21:30.947Z,23.09
2017-05-13T05:22:30.643Z,23
2017-05-13T05:23:30.653Z,23.07
2017-05-13T05:24:30.974Z,22.98
2017-05-13T05:25:30.982Z,23.05
2017-05-13T05:26:30.985Z,23
2017-05-13T05:27:30.994Z,23.01
2017-05-13T05:28:30.687Z,23
2017-05-13T05:29:31.008Z,23.05
2017-05-13T05:30:30.699Z,23.02
2017-05-13T05:31:30.708Z,22.98
2017-05-13T05:32:31.078Z,23.04
2017-05-13T05:33:30.774Z,23.01
2017-05-13T05:34:31.040Z,23.05
2017-05-13T05:35:31.051Z,22.98
2017-05-13T05:36:31.056Z,23.02
2017-05-13T05:37:30.751Z,23.05
2017-05-13T05:38:31.070Z,23.17
2017-05-13T05:39:31.078Z,23.2
2017-05-13T05:40:31.142Z,23.12
2017-05-13T05:41:31.143Z,23.1
2017-05-13T05:42:31.104Z,23.19
2017-05-13T05:43:31.220Z,23.13
2017-05-13T05:44:31.113Z,23.12
2017-05-13T05:45:31.124Z,23.2
2017-05-13T05:46:30.816Z,23.16
2017-05-13T05:47:31.134Z,23.16
2017-05-13T05:48:31.141Z,23.19
2017-05-13T05:49:30.838Z,23.27
2017-05-13T05:50:31.205Z,23.17
2017-05-13T05:51:31.168Z,23.15
2017-05-13T05:52:30.857Z,23.2
2017-05-13T05:53:30.606Z,23.23
2017-05-13T05:54:30.874Z,23.23
2017-05-13T05:55:30.886Z,23.28
2017-05-13T05:56:30.890Z,23.23
2017-05-13T05:57:31.258Z,23.25
2017-05-13T05:58:31.213Z,23.28
2017-05-13T05:59:31.221Z,23.36
2017-05-13T06:00:31.228Z,23.35
2017-05-13T06:01:31.236Z,23.39
2017-05-13T06:02:30.622Z,23.4
2017-05-13T06:03:31.244Z,23.42
2017-05-13T06:04:31.254Z,23.55
2017-05-13T06:05:31.264Z,23.6
2017-05-13T06:06:31.269Z,23.66
2017-05-13T06:07:31.327Z,23.5
2017-05-13T06:08:30.975Z,23.65
2017-05-13T06:09:30.986Z,23.73
2017-05-13T06:10:30.729Z,23.85
2017-05-13T06:11:31.015Z,23.87
2017-05-13T06:12:31.005Z,23.76
2017-05-13T06:13:31.323Z,23.72
2017-05-13T06:14:31.330Z,24.24
2017-05-13T06:15:31.339Z,26.07
2017-05-13T06:16:31.346Z,27.41
2017-05-13T06:17:31.094Z,26.87
2017-05-13T06:18:31.412Z,27.1
2017-05-13T06:19:31.366Z,27.77
2017-05-13T06:20:31.066Z,28.07
2017-05-13T06:21:31.386Z,28.83
2017-05-13T06:22:31.088Z,29.26
2017-05-13T06:23:31.097Z,29.55
2017-05-13T06:24:31.102Z,29.89
2017-05-13T06:25:30.799Z,30.32
2017-05-13T06:26:31.441Z,30.45
2017-05-13T06:27:31.489Z,30.58
2017-05-13T06:28:31.446Z,30.61
2017-05-13T06:29:31.462Z,30.7
2017-05-13T06:30:31.468Z,30.97
2017-05-13T06:31:31.480Z,31.2
2017-05-13T06:32:31.488Z,31.09
2017-05-13T06:33:31.184Z,31.01
2017-05-13T06:34:31.558Z,31.1
2017-05-13T06:35:31.550Z,31.07
2017-05-13T06:36:31.579Z,31.21
2017-05-13T06:37:31.539Z,31.47
2017-05-13T06:38:31.235Z,31.7
2017-05-13T06:39:31.559Z,31.81
2017-05-13T06:40:30.994Z,31.68
2017-05-13T06:41:31.270Z,31.61
2017-05-13T06:42:31.590Z,29.79
2017-05-13T06:43:31.595Z,28.7
2017-05-13T06:44:31.657Z,27.55
2017-05-13T06:45:31.618Z,27.17
2017-05-13T06:46:31.631Z,29.65
2017-05-13T06:47:31.636Z,31.13
2017-05-13T06:48:31.647Z,31.66
2017-05-13T06:49:31.965Z,31.88
2017-05-13T06:50:31.670Z,31.86
2017-05-13T06:51:31.681Z,31.89
2017-05-13T06:52:31.738Z,31.89
2017-05-13T06:53:31.436Z,32.06
2017-05-13T06:54:31.400Z,31.88
2017-05-13T06:55:31.731Z,31.86
2017-05-13T06:56:31.420Z,31.8
2017-05-13T06:57:31.440Z,31.73
2017-05-13T06:58:31.805Z,31.7
2017-05-13T06:59:31.817Z,31.89
2017-05-13T07:00:31.780Z,31.91
2017-05-13T07:01:31.475Z,31.93
2017-05-13T07:02:31.798Z,31.91
2017-05-13T07:03:31.500Z,31.99
2017-05-13T07:04:31.251Z,31.91
2017-05-13T07:05:31.525Z,32.04
2017-05-13T07:06:31.843Z,32.1
2017-05-13T07:07:31.545Z,32.21
2017-05-13T07:08:31.876Z,32.18
2017-05-13T07:09:31.881Z,32.22
2017-05-13T07:10:31.893Z,32.14
2017-05-13T07:11:31.902Z,32.26
2017-05-13T07:12:31.602Z,32.29
2017-05-13T07:13:31.925Z,32.22
2017-05-13T07:14:31.313Z,32.33
2017-05-13T07:15:31.637Z,32.43
2017-05-13T07:16:31.957Z,32.43
2017-05-13T07:17:31.970Z,32.52
2017-05-13T07:18:31.984Z,32.55
2017-05-13T07:19:31.683Z,32.56
2017-05-13T07:20:32.006Z,32.52
2017-05-13T07:21:32.015Z,32.43
2017-05-13T07:22:32.025Z,32.43
2017-05-13T07:23:32.038Z,32.41
2017-05-13T07:24:31.790Z,32.45
2017-05-13T07:25:31.753Z,32.03
2017-05-13T07:26:31.812Z,30.51
2017-05-13T07:27:31.882Z,28.24
2017-05-13T07:28:32.099Z,26.84
2017-05-13T07:29:32.113Z,26.15
2017-05-13T07:30:31.811Z,25.76
2017-05-13T07:31:32.130Z,25.7
2017-05-13T07:32:32.149Z,25.65
2017-05-13T07:33:31.837Z,25.58
2017-05-13T07:34:31.848Z,25.6
2017-05-13T07:35:31.861Z,25.54
2017-05-13T07:36:31.914Z,25.54
2017-05-13T07:37:31.877Z,25.5
2017-05-13T07:38:31.624Z,25.46
2017-05-13T07:39:32.201Z,25.5
2017-05-13T07:40:32.227Z,25.57
2017-05-13T07:41:32.221Z,25.69
2017-05-13T07:42:32.232Z,25.76
2017-05-13T07:43:31.980Z,25.7
2017-05-13T07:44:31.936Z,25.67
2017-05-13T07:45:32.261Z,25.58
2017-05-13T07:46:32.266Z,25.46
2017-05-13T07:47:32.276Z,25.46
2017-05-13T07:48:32.283Z,25.58
2017-05-13T07:49:32.288Z,25.58
2017-05-13T07:50:32.306Z,25.85
2017-05-13T07:51:32.305Z,25.92
2017-05-13T07:52:32.004Z,25.85
2017-05-13T07:53:32.018Z,25.72
2017-05-13T07:54:32.028Z,25.8
2017-05-13T07:55:32.344Z,25.73
2017-05-13T07:56:32.087Z,25.73
2017-05-13T07:57:32.042Z,25.91
2017-05-13T07:58:32.363Z,25.8
2017-05-13T07:59:32.374Z,25.76
2017-05-13T08:00:32.382Z,25.55
2017-05-13T08:01:32.440Z,25.57
2017-05-13T08:02:32.445Z,25.54
2017-05-13T08:03:32.090Z,25.52
2017-05-13T08:04:32.464Z,25.58
2017-05-13T08:05:32.423Z,25.62
2017-05-13T08:06:32.428Z,25.64
2017-05-13T08:07:32.124Z,25.52
2017-05-13T08:08:32.137Z,25.45
2017-05-13T08:09:32.505Z,25.45
2017-05-13T08:10:32.512Z,25.43
2017-05-13T08:11:32.157Z,25.46
2017-05-13T08:12:32.164Z,25.45
2017-05-13T08:13:32.485Z,25.51
2017-05-13T08:14:32.489Z,25.6
2017-05-13T08:15:32.502Z,25.72
2017-05-13T08:16:32.509Z,25.6
2017-05-13T08:17:32.527Z,25.43
2017-05-13T08:18:32.522Z,25.38
2017-05-13T08:19:32.220Z,25.38
2017-05-13T08:20:32.228Z,25.2
2017-05-13T08:21:32.237Z,25.42
2017-05-13T08:22:32.557Z,25.38
2017-05-13T08:23:32.044Z,25.46
2017-05-13T08:24:32.570Z,25.36
2017-05-13T08:25:32.580Z,25.27
2017-05-13T08:26:32.636Z,25.28
2017-05-13T08:27:32.280Z,25.23
2017-05-13T08:28:32.602Z,25.24
2017-05-13T08:29:32.611Z,25.24
2017-05-13T08:30:32.613Z,25.18
2017-05-13T08:31:32.675Z,25.18
2017-05-13T08:32:32.323Z,25.08
2017-05-13T08:33:32.333Z,25.1
2017-05-13T08:34:32.649Z,25.1
2017-05-13T08:35:32.653Z,25.14
2017-05-13T08:36:32.711Z,25.27
2017-05-13T08:37:32.411Z,25.27
2017-05-13T08:38:32.685Z,25.27
2017-05-13T08:39:32.695Z,25.21
2017-05-13T08:40:32.746Z,25.15
2017-05-13T08:41:32.132Z,25.18
2017-05-13T08:42:32.756Z,25.14
2017-05-13T08:43:32.717Z,25.23
2017-05-13T08:44:32.761Z,25.27
2017-05-13T08:45:32.733Z,25.24
2017-05-13T08:46:32.426Z,25.24
2017-05-13T08:47:32.799Z,25.17
2017-05-13T08:48:32.757Z,25.2
2017-05-13T08:49:32.765Z,25.15
2017-05-13T08:50:32.510Z,25.1
2017-05-13T08:51:32.824Z,25.18
2017-05-13T08:52:32.783Z,25.25
2017-05-13T08:53:32.169Z,25.2
2017-05-13T08:54:32.800Z,25.08
2017-05-13T08:55:32.811Z,25.08
2017-05-13T08:56:32.506Z,25.1
2017-05-13T08:57:32.825Z,25.15
2017-05-13T08:58:32.516Z,25.1
2017-05-13T08:59:32.215Z,25.25
2017-05-13T09:00:32.536Z,25.15
2017-05-13T09:01:32.546Z,25.23
2017-05-13T09:02:32.862Z,25.14
2017-05-13T09:03:32.874Z,25.13
2017-05-13T09:04:32.877Z,25.28
2017-05-13T09:05:32.882Z,25.24
2017-05-13T09:06:32.580Z,25.28
2017-05-13T09:07:32.590Z,25.18
2017-05-13T09:08:32.953Z,25.15
2017-05-13T09:09:32.917Z,25.1
2017-05-13T09:10:32.923Z,25.1
2017-05-13T09:11:32.934Z,25.21
2017-05-13T09:12:32.943Z,25.28
2017-05-13T09:13:32.685Z,25.23
2017-05-13T09:14:32.642Z,25.15
2017-05-13T09:15:32.967Z,25.13
2017-05-13T09:16:32.662Z,25.2
2017-05-13T09:17:32.975Z,25.17
2017-05-13T09:18:32.982Z,25.03
2017-05-13T09:19:32.998Z,25.09
2017-05-13T09:20:33.002Z,25.25
2017-05-13T09:21:33.006Z,25.05
2017-05-13T09:22:32.754Z,25.09
2017-05-13T09:23:33.022Z,25.08
2017-05-13T09:24:32.513Z,25.08
2017-05-13T09:25:33.086Z,25
2017-05-13T09:26:33.042Z,25.02
2017-05-13T09:27:33.058Z,24.91
2017-05-13T09:28:33.063Z,24.93
2017-05-13T09:29:32.759Z,24.95
2017-05-13T09:30:33.080Z,25.05
2017-05-13T09:31:32.460Z,25.03
2017-05-13T09:32:32.786Z,25.06
2017-05-13T09:33:32.786Z,25.13
2017-05-13T09:34:33.109Z,25.08
2017-05-13T09:35:33.114Z,25.08
2017-05-13T09:36:33.121Z,25.08
2017-05-13T09:37:33.180Z,25.2
2017-05-13T09:38:33.139Z,25.18
2017-05-13T09:39:33.147Z,25.27
2017-05-13T09:40:32.844Z,25.2
2017-05-13T09:41:33.161Z,25.08
2017-05-13T09:42:32.862Z,25.08
2017-05-13T09:43:33.177Z,25.08
2017-05-13T09:44:32.877Z,25.05
2017-05-13T09:45:33.189Z,25
2017-05-13T09:46:33.199Z,25.1
2017-05-13T09:47:33.212Z,25.13
2017-05-13T09:48:33.216Z,25.1
2017-05-13T09:49:33.271Z,25.09
2017-05-13T09:50:33.228Z,25.05
2017-05-13T09:51:33.239Z,25
2017-05-13T09:52:33.253Z,24.87
2017-05-13T09:53:33.264Z,24.93
2017-05-13T09:54:33.261Z,24.84
2017-05-13T09:55:32.958Z,24.81
2017-05-13T09:56:32.654Z,24.93
2017-05-13T09:57:33.286Z,24.87
2017-05-13T09:58:33.292Z,24.84
2017-05-13T09:59:33.039Z,24.98
2017-05-13T10:00:33.351Z,24.87
2017-05-13T10:01:33.006Z,24.98
2017-05-13T10:02:33.009Z,24.87
2017-05-13T10:03:33.069Z,24.85
2017-05-13T10:04:33.336Z,24.98
2017-05-13T10:05:33.031Z,24.87
2017-05-13T10:06:33.353Z,24.83
2017-05-13T10:07:33.411Z,24.84
2017-05-13T10:08:33.365Z,24.91
2017-05-13T10:09:33.375Z,24.88
2017-05-13T10:10:33.120Z,24.87
2017-05-13T10:11:33.400Z,24.83
2017-05-13T10:12:32.777Z,24.9
2017-05-13T10:13:33.406Z,24.98
2017-05-13T10:14:32.797Z,24.96
2017-05-13T10:15:33.467Z,24.99
2017-05-13T10:16:33.477Z,24.85
2017-05-13T10:17:33.533Z,24.84
2017-05-13T10:18:33.506Z,24.85
2017-05-13T10:19:33.451Z,24.98
2017-05-13T10:20:33.456Z,24.91
2017-05-13T10:21:33.159Z,24.83
2017-05-13T10:22:33.473Z,24.98
2017-05-13T10:23:33.218Z,25.02
2017-05-13T10:24:33.486Z,24.85
2017-05-13T10:25:33.522Z,24.85
2017-05-13T10:26:33.515Z,24.77
2017-05-13T10:27:33.613Z,24.71
2017-05-13T10:28:33.524Z,24.88
2017-05-13T10:29:33.529Z,24.83
2017-05-13T10:30:32.914Z,24.85
2017-05-13T10:31:33.540Z,24.9
2017-05-13T10:32:32.933Z,24.87
2017-05-13T10:33:33.248Z,24.99
2017-05-13T10:34:33.564Z,24.95
2017-05-13T10:35:33.571Z,24.95
2017-05-13T10:36:33.582Z,24.99
2017-05-13T10:37:33.587Z,24.85
2017-05-13T10:38:33.637Z,24.85
2017-05-13T10:39:33.602Z,24.8
2017-05-13T10:40:33.610Z,24.65
2017-05-13T10:41:33.000Z,24.77
2017-05-13T10:42:33.320Z,24.78
2017-05-13T10:43:33.633Z,24.71
2017-05-13T10:44:33.644Z,24.9
2017-05-13T10:45:33.650Z,24.85
2017-05-13T10:46:33.661Z,24.83
2017-05-13T10:47:33.668Z,24.77
2017-05-13T10:48:33.678Z,24.68
2017-05-13T10:49:33.681Z,24.64
2017-05-13T10:50:33.687Z,24.64
2017-05-13T10:51:33.390Z,24.69
2017-05-13T10:52:33.702Z,24.93
2017-05-13T10:53:33.711Z,24.87
2017-05-13T10:54:33.717Z,24.83
2017-05-13T10:55:33.724Z,24.84
2017-05-13T10:56:33.804Z,24.81
2017-05-13T10:57:33.740Z,24.81
2017-05-13T10:58:33.746Z,24.83
2017-05-13T10:59:33.444Z,24.85
2017-05-13T11:00:33.761Z,24.96
2017-05-13T11:01:33.785Z,24.87
2017-05-13T11:02:33.778Z,24.69
2017-05-13T11:03:33.786Z,24.81
2017-05-13T11:04:33.828Z,24.77
2017-05-13T11:05:33.490Z,24.77
2017-05-13T11:06:33.812Z,24.85
2017-05-13T11:07:33.840Z,24.85
2017-05-13T11:08:33.562Z,24.98
2017-05-13T11:09:33.835Z,24.98
2017-05-13T11:10:33.891Z,24.95
2017-05-13T11:11:33.854Z,24.81
2017-05-13T11:12:33.601Z,24.84
2017-05-13T11:13:33.867Z,24.76
2017-05-13T11:14:33.873Z,24.73
2017-05-13T11:15:33.932Z,24.73
2017-05-13T11:16:34.191Z,24.88
2017-05-13T11:17:33.585Z,24.81
2017-05-13T11:18:33.902Z,24.87
2017-05-13T11:19:33.920Z,24.8
2017-05-13T11:20:33.607Z,24.67
2017-05-13T11:21:33.930Z,24.78
2017-05-13T11:22:33.626Z,24.76
2017-05-13T11:23:33.318Z,24.88
2017-05-13T11:24:33.950Z,24.83
2017-05-13T11:25:34.008Z,24.87
2017-05-13T11:26:33.969Z,24.73
2017-05-13T11:27:33.973Z,24.71
2017-05-13T11:28:34.028Z,24.67
2017-05-13T11:29:34.036Z,24.65
2017-05-13T11:30:33.684Z,24.77
2017-05-13T11:31:34.011Z,24.77
2017-05-13T11:32:33.699Z,24.71
2017-05-13T11:33:34.025Z,24.81
2017-05-13T11:34:34.327Z,24.73
2017-05-13T11:35:33.723Z,24.65
2017-05-13T11:36:33.734Z,24.69
2017-05-13T11:37:34.049Z,24.62
2017-05-13T11:38:33.793Z,24.67
2017-05-13T11:39:34.075Z,24.62
2017-05-13T11:40:34.070Z,24.65
2017-05-13T11:41:34.081Z,24.67
2017-05-13T11:42:34.138Z,24.69
2017-05-13T11:43:34.146Z,24.62
2017-05-13T11:44:33.791Z,24.53
2017-05-13T11:45:33.854Z,24.6
2017-05-13T11:46:33.809Z,24.58
2017-05-13T11:47:33.817Z,24.68
2017-05-13T11:48:34.131Z,24.78
2017-05-13T11:49:34.140Z,24.85
2017-05-13T11:50:34.147Z,24.76
2017-05-13T11:51:34.182Z,24.67
2017-05-13T11:52:34.217Z,24.65
2017-05-13T11:53:34.220Z,24.6
2017-05-13T11:54:34.181Z,24.52
2017-05-13T11:55:33.875Z,24.62
2017-05-13T11:56:34.192Z,24.71
2017-05-13T11:57:34.202Z,24.55
2017-05-13T11:58:34.210Z,24.55
2017-05-13T11:59:34.218Z,24.52
2017-05-13T12:00:34.227Z,24.46
2017-05-13T12:01:33.923Z,24.47
2017-05-13T12:02:33.929Z,24.53
2017-05-13T12:03:34.248Z,24.49
2017-05-13T12:04:33.943Z,24.52
2017-05-13T12:05:34.265Z,24.53
2017-05-13T12:06:34.009Z,24.52
2017-05-13T12:07:34.283Z,24.57
2017-05-13T12:08:34.022Z,24.49
2017-05-13T12:09:34.303Z,24.55
2017-05-13T12:10:34.300Z,24.53
2017-05-13T12:11:34.006Z,24.53
2017-05-13T12:12:33.694Z,24.58
2017-05-13T12:13:34.011Z,24.62
2017-05-13T12:14:34.335Z,24.5
2017-05-13T12:15:34.341Z,24.57
2017-05-13T12:16:34.355Z,24.55
2017-05-13T12:17:34.355Z,24.55
2017-05-13T12:18:34.051Z,24.57
2017-05-13T12:19:34.368Z,24.53
2017-05-13T12:20:34.380Z,24.57
2017-05-13T12:21:34.436Z,24.73
2017-05-13T12:22:34.398Z,24.68
2017-05-13T12:23:34.141Z,24.67
2017-05-13T12:24:34.141Z,24.62
2017-05-13T12:25:34.462Z,24.53
2017-05-13T12:26:34.424Z,24.5
2017-05-13T12:27:34.121Z,24.58
2017-05-13T12:28:34.497Z,24.61
2017-05-13T12:29:34.444Z,24.58
2017-05-13T12:30:34.452Z,24.55
2017-05-13T12:31:34.470Z,24.57
2017-05-13T12:32:34.206Z,24.52
2017-05-13T12:33:34.231Z,24.47
2017-05-13T12:34:34.483Z,24.5
2017-05-13T12:35:34.492Z,24.5
2017-05-13T12:36:34.500Z,24.6
2017-05-13T12:37:34.514Z,24.61
2017-05-13T12:38:34.513Z,24.47
2017-05-13T12:39:34.520Z,24.46
2017-05-13T12:40:34.225Z,24.47
2017-05-13T12:41:34.545Z,24.52
2017-05-13T12:42:34.590Z,24.53
2017-05-13T12:43:34.556Z,24.49
2017-05-13T12:44:34.300Z,24.55
2017-05-13T12:45:34.256Z,24.64
2017-05-13T12:46:34.634Z,24.55
2017-05-13T12:47:34.273Z,24.47
2017-05-13T12:48:34.640Z,24.4
2017-05-13T12:49:34.288Z,24.39
2017-05-13T12:50:34.661Z,24.39
2017-05-13T12:51:34.714Z,24.47
2017-05-13T12:52:34.311Z,24.42
2017-05-13T12:53:34.324Z,24.39
2017-05-13T12:54:34.325Z,24.37
2017-05-13T12:55:34.647Z,24.37
2017-05-13T12:56:34.649Z,24.35
2017-05-13T12:57:34.661Z,24.37